Time;durP1;ratioP1;P1;durP2;ratioP2;P2;SDS_P1;SDS_P2;PMS_P1;PMS_P2;Temp;Humidity;BMP_temperature;BMP_pressure;BME280_temperature;BME280_humidity;BME280_pressure;Samples;Min_cycle;Max_cycle;Signal;HPM_P1;HPM_P2
2023/01/11 00:01:59;;;;;;;4.50;2.50;;;8.40;99.90;;;;;;4165567;28;20077;-87
2023/01/11 00:04:01;;;;;;;8.23;3.95;;;8.50;99.90;;;;;;4196396;28;20051;-87
2023/01/11 00:06:03;;;;;;;3.80;2.72;;;8.60;99.90;;;;;;4200149;28;20051;-87
2023/01/11 00:08:06;;;;;;;4.85;3.40;;;8.50;99.90;;;;;;4200309;28;20048;-87
2023/01/11 00:10:08;;;;;;;4.32;3.00;;;8.50;99.90;;;;;;4199551;28;20404;-88
2023/01/11 00:12:11;;;;;;;5.22;2.60;;;8.60;99.90;;;;;;4199595;28;20102;-88
2023/01/11 00:14:12;;;;;;;4.13;2.63;;;8.60;99.90;;;;;;4199240;28;20452;-88
2023/01/11 00:16:16;;;;;;;4.43;2.60;;;8.60;99.90;;;;;;4198893;28;20115;-87
2023/01/11 00:18:16;;;;;;;4.75;2.80;;;8.60;99.90;;;;;;4199143;28;20044;-87
2023/01/11 00:20:18;;;;;;;6.18;2.85;;;8.70;99.90;;;;;;4197213;28;20056;-87
2023/01/11 00:22:19;;;;;;;4.68;2.97;;;8.50;99.90;;;;;;4198041;28;20127;-87
2023/01/11 00:24:20;;;;;;;6.35;2.55;;;8.60;99.90;;;;;;4181531;28;20045;-86
2023/01/11 00:26:20;;;;;;;3.42;2.60;;;8.60;99.90;;;;;;4199241;28;20044;-86
2023/01/11 00:28:21;;;;;;;6.20;2.15;;;8.60;99.90;;;;;;4199744;28;20043;-87
2023/01/11 00:30:22;;;;;;;3.55;2.22;;;8.80;99.90;;;;;;4198187;28;20331;-87
2023/01/11 00:32:24;;;;;;;4.80;2.28;;;8.60;99.90;;;;;;4199865;28;20094;-87
2023/01/11 00:34:24;;;;;;;6.22;3.15;;;8.80;99.90;;;;;;4199569;28;20043;-88
2023/01/11 00:36:26;;;;;;;4.13;2.60;;;8.60;99.90;;;;;;4181613;28;20060;-88
2023/01/11 00:38:50;;;;;;;4.03;2.58;;;8.80;99.90;;;;;;4198083;28;20041;-87
2023/01/11 00:40:50;;;;;;;3.78;2.30;;;8.70;99.90;;;;;;4198713;28;20485;-87
2023/01/11 00:49:52;;;;;;;3.92;2.40;;;7.10;99.90;;;;;;4199408;28;20048;-88
2023/01/11 00:51:53;;;;;;;4.13;2.60;;;8.90;99.90;;;;;;4198171;28;20080;-88
2023/01/11 00:53:54;;;;;;;4.55;2.60;;;8.80;99.90;;;;;;4198199;28;20060;-87
2023/01/11 00:55:54;;;;;;;3.65;2.63;;;8.60;99.90;;;;;;4197971;28;20071;-87
2023/01/11 00:57:55;;;;;;;3.05;2.35;;;8.90;99.90;;;;;;4197859;28;20052;-88
2023/01/11 00:59:56;;;;;;;5.95;2.75;;;8.90;99.90;;;;;;4199689;28;20455;-87
2023/01/11 01:01:56;;;;;;;3.38;2.38;;;9.60;99.90;;;;;;4182183;28;20560;-88
2023/01/11 01:03:59;;;;;;;3.95;2.40;;;9.00;99.90;;;;;;4199415;28;20086;-87
2023/01/11 01:06:01;;;;;;;3.55;1.92;;;9.40;99.90;;;;;;4197810;28;20048;-87
2023/01/11 01:08:01;;;;;;;4.18;2.92;;;9.50;99.90;;;;;;4198356;28;20642;-87
2023/01/11 01:10:03;;;;;;;4.13;2.30;;;9.00;99.90;;;;;;4199243;28;20044;-88
2023/01/11 01:12:05;;;;;;;4.25;2.28;;;9.00;99.90;;;;;;4198267;28;20059;-88
2023/01/11 01:14:27;;;;;;;3.80;2.17;;;9.00;99.90;;;;;;4197058;28;20508;-88
2023/01/11 01:16:31;;;;;;;4.38;2.80;;;9.00;99.90;;;;;;4197159;28;20429;-88
2023/01/11 01:18:31;;;;;;;4.43;2.22;;;9.00;99.90;;;;;;4197511;28;20044;-87
2023/01/11 01:20:33;;;;;;;3.92;1.83;;;9.00;99.90;;;;;;4198973;28;20102;-87
2023/01/11 01:22:34;;;;;;;3.20;2.42;;;9.50;99.90;;;;;;4197673;28;20082;-87
2023/01/11 01:24:34;;;;;;;4.30;2.15;;;9.00;99.90;;;;;;4181251;28;20049;-88
2023/01/11 01:26:36;;;;;;;3.20;2.10;;;9.10;99.90;;;;;;4197632;28;20102;-88
2023/01/11 01:28:37;;;;;;;3.60;2.08;;;9.10;99.90;;;;;;4197517;28;20048;-87
2023/01/11 01:30:39;;;;;;;4.10;2.33;;;9.10;99.90;;;;;;4197303;28;20102;-87
2023/01/11 01:32:39;;;;;;;4.07;2.00;;;9.10;99.90;;;;;;4197477;28;20052;-87
2023/01/11 01:34:40;;;;;;;4.13;2.10;;;9.10;99.90;;;;;;4198513;28;20044;-88
2023/01/11 01:36:41;;;;;;;3.40;1.83;;;10.00;99.90;;;;;;4198622;28;20040;-87
2023/01/11 01:38:41;;;;;;;3.08;1.67;;;9.60;99.90;;;;;;4197376;28;20095;-87
2023/01/11 01:40:45;;;;;;;2.70;1.83;;;10.00;99.90;;;;;;4197953;28;20489;-89
2023/01/11 01:42:45;;;;;;;2.28;1.50;;;9.10;99.90;;;;;;4198391;28;20048;-87
2023/01/11 01:44:46;;;;;;;2.10;1.52;;;9.30;99.90;;;;;;4196577;28;20041;-87
2023/01/11 01:46:48;;;;;;;5.88;1.67;;;9.50;99.90;;;;;;4198066;28;20385;-88
2023/01/11 01:49:11;;;;;;;2.25;1.48;;;9.50;99.90;;;;;;4180427;28;20087;-88
2023/01/11 01:51:18;;;;;;;2.15;1.40;;;9.60;99.90;;;;;;4196990;28;20048;-87
2023/01/11 01:53:36;;;;;;;1.60;1.27;;;9.50;99.90;;;;;;4180676;28;20382;-87
2023/01/11 01:55:42;;;;;;;1.88;1.13;;;11.10;99.90;;;;;;4196884;28;20497;-87
2023/01/11 01:57:43;;;;;;;1.98;1.08;;;9.50;99.90;;;;;;4198152;28;20093;-88
2023/01/11 01:59:47;;;;;;;1.65;1.25;;;9.60;99.90;;;;;;4196991;28;20052;-87
2023/01/11 02:01:51;;;;;;;1.08;0.80;;;9.60;99.90;;;;;;4198085;28;20052;-87
2023/01/11 02:03:53;;;;;;;1.83;1.27;;;9.60;99.90;;;;;;4196199;28;20550;-87
2023/01/11 02:05:55;;;;;;;1.85;0.90;;;9.70;99.90;;;;;;4197697;28;20084;-87
2023/01/11 02:07:58;;;;;;;1.05;0.80;;;9.70;99.90;;;;;;4196633;28;20418;-87
2023/01/11 02:10:17;;;;;;;1.30;1.00;;;9.70;99.90;;;;;;4198135;28;20055;-87
2023/01/11 02:12:19;;;;;;;1.98;1.10;;;9.70;99.90;;;;;;4180041;28;20493;-87
2023/01/11 02:14:21;;;;;;;2.28;1.10;;;10.00;99.90;;;;;;4198706;28;20048;-87
2023/01/11 02:16:22;;;;;;;3.10;1.20;;;9.90;99.90;;;;;;4197607;28;20053;-87
2023/01/11 02:18:22;;;;;;;1.02;0.88;;;10.10;99.90;;;;;;4196875;28;20480;-88
2023/01/11 02:20:45;;;;;;;1.52;0.90;;;10.00;99.90;;;;;;4196675;28;20097;-87
2023/01/11 02:23:23;;;;;;;1.20;0.57;;;9.80;99.90;;;;;;4197611;28;20083;-87
2023/01/11 02:25:29;;;;;;;3.33;0.80;;;9.90;99.90;;;;;;4197819;28;20052;-87
2023/01/11 02:28:15;;;;;;;0.73;0.60;;;9.90;99.90;;;;;;4197802;28;20045;-87
2023/01/11 02:30:21;;;;;;;2.35;0.80;;;9.90;99.90;;;;;;4196325;28;20047;-87
2023/01/11 02:32:45;;;;;;;1.38;0.98;;;10.30;99.90;;;;;;4196414;28;20580;-87
2023/01/11 02:35:05;;;;;;;0.90;0.68;;;10.00;99.90;;;;;;4167624;28;20052;-88
2023/01/11 02:38:05;;;;;;;1.20;0.80;;;9.90;99.90;;;;;;4196239;28;20123;-88
2023/01/11 02:40:44;;;;;;;1.23;0.77;;;10.00;99.90;;;;;;4146568;28;20478;-89
2023/01/11 02:45:49;;;;;;;1.25;0.70;;;10.00;99.90;;;;;;4127566;28;20050;-88
2023/01/11 02:48:07;;;;;;;0.77;0.70;;;10.00;99.90;;;;;;4168241;28;20420;-88
2023/01/11 02:50:38;;;;;;;3.30;0.70;;;10.00;99.90;;;;;;4195952;28;20558;-88
2023/01/11 02:53:25;;;;;;;1.60;0.60;;;10.00;99.90;;;;;;4195889;28;20531;-88
2023/01/11 02:55:31;;;;;;;1.48;0.63;;;10.00;99.90;;;;;;4185029;28;20523;-88
2023/01/11 02:57:34;;;;;;;0.73;0.55;;;10.00;99.90;;;;;;4196479;28;20083;-88
2023/01/11 02:59:36;;;;;;;0.70;0.70;;;10.10;99.90;;;;;;4179935;28;20095;-88
2023/01/11 03:01:47;;;;;;;0.80;0.60;;;10.00;99.90;;;;;;4196264;28;20514;-88
2023/01/11 03:03:49;;;;;;;0.55;0.45;;;10.10;99.90;;;;;;4195020;28;20094;-88
2023/01/11 03:05:58;;;;;;;0.60;0.60;;;10.10;99.90;;;;;;4195623;28;20061;-88
2023/01/11 03:08:18;;;;;;;0.52;0.50;;;10.10;99.90;;;;;;4195802;28;20045;-88
2023/01/11 03:10:47;;;;;;;0.52;0.50;;;9.90;99.90;;;;;;4195395;28;20118;-88
2023/01/11 03:13:09;;;;;;;0.45;0.45;;;10.10;99.90;;;;;;4176639;28;20095;-88
2023/01/11 03:15:28;;;;;;;1.00;0.60;;;10.10;99.90;;;;;;4191575;28;20044;-89
2023/01/11 03:17:58;;;;;;;0.57;0.57;;;10.20;99.90;;;;;;4195197;28;20040;-88
2023/01/11 03:20:12;;;;;;;4.25;0.82;;;10.10;99.90;;;;;;4195590;28;20048;-88
2023/01/11 03:23:05;;;;;;;1.52;0.70;;;10.10;99.90;;;;;;4195273;28;20057;-88
2023/01/11 03:25:23;;;;;;;0.88;0.70;;;10.10;99.90;;;;;;4175959;28;20049;-88
2023/01/11 03:27:45;;;;;;;0.75;0.47;;;10.10;99.90;;;;;;4196338;28;20049;-88
2023/01/11 03:30:14;;;;;;;0.77;0.60;;;10.10;99.90;;;;;;4195522;28;20082;-88
2023/01/11 03:32:18;;;;;;;1.08;0.60;;;10.10;99.90;;;;;;4196069;28;20559;-89
2023/01/11 03:34:50;;;;;;;0.60;0.60;;;10.10;99.90;;;;;;4194442;28;20095;-88
2023/01/11 03:37:18;;;;;;;0.52;0.30;;;10.10;99.90;;;;;;4194207;28;20056;-88
2023/01/11 03:39:47;;;;;;;1.20;0.70;;;10.20;99.90;;;;;;4196637;28;20072;-89
2023/01/11 03:41:54;;;;;;;1.02;0.85;;;10.20;99.90;;;;;;4194565;28;20049;-88
2023/01/11 03:43:57;;;;;;;1.50;0.73;;;10.20;99.90;;;;;;4195474;28;20045;-88
2023/01/11 03:46:09;;;;;;;2.75;0.90;;;10.20;99.90;;;;;;4195161;28;20044;-88
2023/01/11 03:48:18;;;;;;;1.77;1.10;;;10.20;99.90;;;;;;4194617;28;20052;-88
2023/01/11 03:50:21;;;;;;;1.67;0.90;;;10.20;99.90;;;;;;4195356;28;20057;-89
2023/01/11 03:52:26;;;;;;;4.38;1.40;;;10.30;99.90;;;;;;4195152;28;20105;-89
2023/01/11 03:54:29;;;;;;;3.42;1.30;;;10.30;99.90;;;;;;4196090;28;20462;-86
2023/01/11 03:57:15;;;;;;;4.45;2.05;;;10.30;99.90;;;;;;4196504;28;20577;-87
2023/01/11 03:59:15;;;;;;;5.40;1.88;;;10.30;99.90;;;;;;4180072;28;20056;-87
2023/01/11 04:01:16;;;;;;;7.13;2.45;;;10.40;99.90;;;;;;4196277;28;20050;-87
2023/01/11 04:03:17;;;;;;;9.68;2.35;;;10.40;99.90;;;;;;4177775;28;20103;-87
2023/01/11 04:05:17;;;;;;;10.48;2.05;;;10.40;99.90;;;;;;4195096;28;20041;-87
2023/01/11 04:07:18;;;;;;;12.85;2.03;;;10.40;99.90;;;;;;4195080;28;20068;-87
2023/01/11 04:09:19;;;;;;;11.63;1.95;;;10.40;99.90;;;;;;4197841;28;20054;-87
2023/01/11 04:11:21;;;;;;;9.27;1.98;;;10.40;99.90;;;;;;4199362;28;20052;-87
2023/01/11 04:13:21;;;;;;;4.25;1.38;;;11.70;99.90;;;;;;4200414;28;20053;-87
2023/01/11 04:15:22;;;;;;;4.65;2.15;;;10.80;99.90;;;;;;4183978;28;20543;-87
2023/01/11 04:17:23;;;;;;;10.50;2.30;;;10.80;99.90;;;;;;4200718;28;20521;-87
2023/01/11 04:19:23;;;;;;;8.63;2.50;;;10.70;99.90;;;;;;4201619;28;20052;-88
2023/01/11 04:21:24;;;;;;;7.72;2.30;;;10.60;99.90;;;;;;4200745;28;20054;-88
2023/01/11 04:23:25;;;;;;;9.50;1.80;;;10.70;99.90;;;;;;4200314;28;20049;-88
2023/01/11 04:25:27;;;;;;;7.07;1.73;;;11.20;99.90;;;;;;4201505;28;20044;-88
2023/01/11 04:27:28;;;;;;;6.68;1.50;;;10.80;99.90;;;;;;4199391;28;20044;-88
2023/01/11 04:29:28;;;;;;;6.65;3.03;;;12.00;99.90;;;;;;4182283;28;20085;-87
2023/01/11 04:31:29;;;;;;;8.75;1.48;;;10.80;99.90;;;;;;4198654;28;20090;-88
2023/01/11 04:33:30;;;;;;;5.78;1.48;;;10.70;99.90;;;;;;4199485;28;20051;-88
2023/01/11 04:35:30;;;;;;;9.35;1.63;;;10.50;99.90;;;;;;4182131;28;20095;-88
2023/01/11 04:37:32;;;;;;;12.35;2.10;;;10.40;99.90;;;;;;4199099;28;20433;-87
2023/01/11 04:39:33;;;;;;;8.75;1.20;;;11.10;99.90;;;;;;4198577;28;20052;-88
2023/01/11 04:43:55;;;;;;;7.50;1.60;;;10.10;99.90;;;;;;4198673;28;20056;-87
2023/01/11 04:45:59;;;;;;;14.07;1.55;;;10.40;99.90;;;;;;4200218;28;20045;-87
2023/01/11 04:48:00;;;;;;;5.32;1.10;;;10.40;99.90;;;;;;4198905;28;20053;-87
2023/01/11 04:50:02;;;;;;;9.40;2.25;;;9.70;99.90;;;;;;4198636;28;20052;-88
2023/01/11 04:52:03;;;;;;;4.13;1.00;;;10.20;99.90;;;;;;4200114;28;20215;-88
2023/01/11 04:54:04;;;;;;;6.72;0.88;;;10.10;99.90;;;;;;4198685;28;20064;-87
2023/01/11 04:56:05;;;;;;;3.45;0.70;;;9.90;99.90;;;;;;4198138;28;20470;-89
2023/01/11 04:58:06;;;;;;;6.88;1.20;;;10.90;99.90;;;;;;4199475;28;20044;-88
2023/01/11 05:00:09;;;;;;;5.68;1.05;;;10.10;99.90;;;;;;4198497;28;20056;-88
2023/01/11 05:02:10;;;;;;;4.07;1.42;;;10.00;99.90;;;;;;4197965;28;20037;-89
2023/01/11 05:04:11;;;;;;;1.73;1.00;;;9.80;99.90;;;;;;4199369;28;20540;-88
2023/01/11 05:06:12;;;;;;;6.22;1.33;;;9.70;99.90;;;;;;4200064;28;20040;-89
2023/01/11 05:08:13;;;;;;;6.70;1.00;;;10.00;99.90;;;;;;4182080;28;20059;-88
2023/01/11 05:10:15;;;;;;;12.70;1.35;;;9.70;99.90;;;;;;4182683;28;20492;-89
2023/01/11 05:12:15;;;;;;;10.27;1.40;;;9.70;99.90;;;;;;4179773;28;20132;-88
2023/01/11 05:14:18;;;;;;;5.40;0.90;;;10.00;99.90;;;;;;4167952;28;20057;-88
2023/01/11 05:16:22;;;;;;;4.75;1.08;;;10.00;99.90;;;;;;4182234;28;20501;-88
2023/01/11 05:18:23;;;;;;;10.50;1.98;;;10.00;99.90;;;;;;4199647;28;20041;-88
2023/01/11 05:20:23;;;;;;;6.60;1.23;;;10.00;99.90;;;;;;4198713;28;20082;-89
2023/01/11 05:22:24;;;;;;;7.93;1.50;;;9.80;99.90;;;;;;4198695;28;20508;-87
2023/01/11 05:24:26;;;;;;;7.93;1.10;;;9.80;99.90;;;;;;4199927;28;20037;-89
2023/01/11 05:26:30;;;;;;;5.47;1.30;;;11.60;99.90;;;;;;4199444;28;20450;-88
2023/01/11 05:28:31;;;;;;;7.78;1.15;;;10.10;99.90;;;;;;4181534;28;20052;-88
2023/01/11 05:30:31;;;;;;;5.88;0.90;;;10.10;99.90;;;;;;4197952;28;20576;-88
2023/01/11 05:32:32;;;;;;;13.32;1.10;;;10.10;99.90;;;;;;4198695;28;20070;-87
2023/01/11 05:34:34;;;;;;;3.78;0.90;;;10.20;99.90;;;;;;4181089;28;20049;-87
2023/01/11 05:36:35;;;;;;;11.93;1.65;;;10.60;99.90;;;;;;4197732;28;20502;-87
2023/01/11 05:38:35;;;;;;;13.45;1.75;;;9.90;99.90;;;;;;4197900;28;20097;-87
2023/01/11 05:40:36;;;;;;;8.25;1.48;;;10.20;99.90;;;;;;4197819;28;20079;-87
2023/01/11 05:42:38;;;;;;;9.23;1.67;;;10.60;99.90;;;;;;4199648;28;20094;-91
2023/01/11 05:46:59;;;;;;;10.65;1.58;;;10.20;99.90;;;;;;4197635;28;20053;-88
2023/01/11 05:49:00;;;;;;;10.45;1.38;;;9.80;99.90;;;;;;4191692;28;20073;-86
2023/01/11 05:51:01;;;;;;;9.40;1.30;;;9.90;99.90;;;;;;4188110;28;20481;-86
2023/01/11 05:53:02;;;;;;;8.25;1.17;;;9.90;99.90;;;;;;4197435;28;20049;-86
2023/01/11 05:55:03;;;;;;;8.30;1.60;;;9.80;99.90;;;;;;4198283;28;20059;-86
2023/01/11 05:57:09;;;;;;;11.27;1.60;;;9.90;99.90;;;;;;4197928;28;20087;-86
2023/01/11 05:59:10;;;;;;;10.82;1.95;;;9.90;99.90;;;;;;4196871;28;20500;-86
2023/01/11 06:01:12;;;;;;;14.43;1.70;;;9.70;99.90;;;;;;4195739;28;20080;-86
2023/01/11 06:03:12;;;;;;;15.65;1.70;;;9.90;99.90;;;;;;4197289;28;20146;-86
2023/01/11 06:05:13;;;;;;;13.10;1.67;;;9.90;99.90;;;;;;4202034;28;20147;-86
2023/01/11 06:07:14;;;;;;;15.40;2.00;;;9.90;99.90;;;;;;4197123;28;20484;-86
2023/01/11 06:09:14;;;;;;;11.98;2.10;;;9.80;99.90;;;;;;4197291;28;20052;-86
2023/01/11 06:11:17;;;;;;;13.18;2.58;;;9.90;99.90;;;;;;4196651;28;20421;-87
2023/01/11 06:13:26;;;;;;;11.98;2.25;;;9.80;99.90;;;;;;4198407;28;20048;-86
2023/01/11 06:15:27;;;;;;;15.05;2.00;;;9.80;99.90;;;;;;4196674;28;20053;-86
2023/01/11 06:17:27;;;;;;;11.00;1.83;;;9.80;99.90;;;;;;4197256;28;20374;-86
2023/01/11 06:19:28;;;;;;;12.75;1.83;;;10.20;99.90;;;;;;4197484;28;20048;-86
2023/01/11 06:21:29;;;;;;;12.55;2.42;;;9.80;99.90;;;;;;4197853;28;20068;-86
2023/01/11 06:23:33;;;;;;;16.23;1.73;;;10.20;99.90;;;;;;4179552;28;20497;-86
2023/01/11 06:25:36;;;;;;;12.65;2.28;;;9.80;99.90;;;;;;4213327;28;20048;-86
2023/01/11 06:27:37;;;;;;;7.82;1.40;;;9.80;99.90;;;;;;4180033;28;20486;-86
2023/01/11 06:29:37;;;;;;;7.57;1.50;;;9.70;99.90;;;;;;4196614;28;20127;-86
2023/01/11 06:31:38;;;;;;;9.25;1.80;;;9.70;99.90;;;;;;4197640;28;20462;-86
2023/01/11 06:33:39;;;;;;;13.32;1.90;;;9.70;99.90;;;;;;4196520;28;20409;-86
2023/01/11 06:35:41;;;;;;;14.00;1.67;;;9.70;99.90;;;;;;4196417;28;20040;-87
2023/01/11 06:37:42;;;;;;;15.80;2.22;;;9.70;99.90;;;;;;4197700;28;20052;-86
2023/01/11 06:39:42;;;;;;;6.60;1.40;;;9.70;99.90;;;;;;4197379;28;20048;-86
2023/01/11 06:41:43;;;;;;;12.90;1.98;;;10.10;99.90;;;;;;4197114;28;20369;-87
2023/01/11 06:43:45;;;;;;;7.22;1.42;;;9.70;99.90;;;;;;4197403;28;20159;-86
2023/01/11 06:45:48;;;;;;;13.20;1.88;;;10.20;99.90;;;;;;4196692;28;20496;-86
2023/01/11 06:47:50;;;;;;;6.50;1.52;;;9.70;99.90;;;;;;4195810;28;20048;-87
2023/01/11 06:49:51;;;;;;;9.63;1.83;;;9.70;99.90;;;;;;4197420;28;20037;-86
2023/01/11 06:51:51;;;;;;;11.10;2.15;;;9.60;99.90;;;;;;4197538;28;20048;-87
2023/01/11 06:53:52;;;;;;;12.90;2.50;;;9.60;99.90;;;;;;4195931;28;20087;-88
2023/01/11 06:55:54;;;;;;;9.95;1.48;;;9.70;99.90;;;;;;4198168;28;20052;-86
2023/01/11 06:57:55;;;;;;;12.70;1.42;;;10.70;99.90;;;;;;4198405;28;20051;-87
2023/01/11 06:59:56;;;;;;;9.73;1.35;;;10.20;99.90;;;;;;4197342;28;20083;-87
2023/01/11 07:01:57;;;;;;;13.32;1.98;;;10.00;99.90;;;;;;4189963;28;20535;-87
2023/01/11 07:03:58;;;;;;;12.82;2.25;;;9.70;99.90;;;;;;4181422;28;20571;-87
2023/01/11 07:06:00;;;;;;;13.43;1.98;;;9.90;99.90;;;;;;4182730;28;20124;-87
2023/01/11 07:08:02;;;;;;;14.82;2.15;;;9.90;99.90;;;;;;4189110;28;20112;-87
2023/01/11 07:10:05;;;;;;;12.52;2.00;;;9.90;99.90;;;;;;4195190;28;20650;-87
2023/01/11 07:12:06;;;;;;;14.20;2.92;;;9.60;99.90;;;;;;4189186;28;20044;-86
2023/01/11 07:14:06;;;;;;;11.30;1.40;;;9.70;99.90;;;;;;4186946;28;20049;-87
2023/01/11 07:16:07;;;;;;;16.58;2.22;;;9.90;99.90;;;;;;4190547;28;20519;-86
2023/01/11 07:18:09;;;;;;;12.10;1.50;;;9.60;99.90;;;;;;4198733;28;20036;-87
2023/01/11 07:20:11;;;;;;;14.52;1.85;;;9.50;99.90;;;;;;4198916;28;20047;-87
2023/01/11 07:22:14;;;;;;;10.73;1.63;;;9.80;99.90;;;;;;4201932;28;20041;-87
2023/01/11 07:24:15;;;;;;;13.63;1.55;;;9.80;99.90;;;;;;4180356;28;20460;-87
2023/01/11 07:26:16;;;;;;;11.50;1.05;;;9.80;99.90;;;;;;4196624;28;20040;-87
2023/01/11 07:28:17;;;;;;;14.57;3.00;;;9.60;99.90;;;;;;4196201;28;20476;-86
2023/01/11 07:30:17;;;;;;;15.52;1.15;;;9.50;99.90;;;;;;4196766;28;20110;-87
2023/01/11 07:32:19;;;;;;;7.72;2.20;;;9.70;99.90;;;;;;4197392;28;20197;-87
2023/01/11 07:34:21;;;;;;;10.25;1.48;;;9.80;99.90;;;;;;4196660;28;20055;-87
2023/01/11 07:36:22;;;;;;;19.42;2.33;;;9.50;99.90;;;;;;4196402;28;20040;-88
2023/01/11 07:38:22;;;;;;;12.98;1.67;;;9.70;99.90;;;;;;4204496;28;20055;-86
2023/01/11 07:40:24;;;;;;;7.47;1.75;;;9.60;99.90;;;;;;4201849;28;20099;-87
2023/01/11 07:44:45;;;;;;;4.60;1.30;;;9.90;99.90;;;;;;4199080;28;20064;-87
2023/01/11 07:46:46;;;;;;;5.88;1.58;;;10.00;99.90;;;;;;4200814;28;20044;-88
2023/01/11 07:48:48;;;;;;;9.77;2.15;;;9.70;99.90;;;;;;4200278;28;20547;-88
2023/01/11 07:50:49;;;;;;;8.57;1.45;;;9.70;99.90;;;;;;4202002;28;20089;-87
2023/01/11 07:52:51;;;;;;;12.00;1.13;;;9.40;99.90;;;;;;4201773;28;20074;-87
2023/01/11 07:54:51;;;;;;;9.85;1.80;;;9.30;99.90;;;;;;4200113;28;20552;-87
2023/01/11 07:56:52;;;;;;;5.07;1.15;;;10.10;99.90;;;;;;4183604;28;20060;-87
2023/01/11 07:58:53;;;;;;;9.73;1.67;;;10.60;99.90;;;;;;4201152;28;20052;-86
2023/01/11 08:00:54;;;;;;;14.02;1.60;;;9.60;99.90;;;;;;4200693;28;20048;-87
2023/01/11 08:02:55;;;;;;;8.23;0.90;;;9.70;99.90;;;;;;4199880;28;20440;-86
2023/01/11 08:04:57;;;;;;;8.20;1.17;;;9.40;99.90;;;;;;4200261;28;20048;-87
2023/01/11 08:06:57;;;;;;;7.47;1.55;;;9.30;99.90;;;;;;4183421;28;20535;-87
2023/01/11 08:08:59;;;;;;;10.55;1.88;;;9.40;99.90;;;;;;4200007;28;20040;-86
2023/01/11 08:15:42;;;;;;;;;;;9.60;99.90;;;;;;4197933;28;20048;-86
2023/01/11 08:17:42;;;;;;;11.13;1.60;;;9.90;99.90;;;;;;4199603;28;20343;-87
2023/01/11 08:19:44;;;;;;;9.15;1.48;;;9.30;99.90;;;;;;4201046;28;20033;-87
2023/01/11 08:21:46;;;;;;;15.65;1.42;;;10.20;99.90;;;;;;4200938;28;20043;-87
2023/01/11 08:23:47;;;;;;;6.95;1.63;;;9.40;99.90;;;;;;4201102;28;20041;-87
2023/01/11 08:25:47;;;;;;;14.68;1.75;;;9.50;99.90;;;;;;4182292;28;20052;-87
2023/01/11 08:27:48;;;;;;;11.43;1.42;;;9.30;99.90;;;;;;4182086;28;20059;-88
2023/01/11 08:29:49;;;;;;;9.32;1.20;;;9.40;99.90;;;;;;4199545;28;20045;-88
2023/01/11 08:31:50;;;;;;;8.63;1.73;;;10.00;99.90;;;;;;4198904;28;20044;-88
2023/01/11 08:33:50;;;;;;;8.40;1.45;;;10.20;99.90;;;;;;4182224;28;20049;-87
2023/01/11 08:35:51;;;;;;;8.55;1.70;;;9.50;99.90;;;;;;4199065;28;20501;-88
2023/01/11 08:37:53;;;;;;;6.38;1.40;;;9.20;99.90;;;;;;4197402;28;20056;-84
2023/01/11 08:39:55;;;;;;;8.27;1.45;;;9.50;99.90;;;;;;4196064;28;20044;-89
2023/01/11 08:41:58;;;;;;;10.93;1.92;;;9.50;99.90;;;;;;4194857;28;20052;-88
2023/01/11 08:43:59;;;;;;;7.82;1.23;;;9.20;99.90;;;;;;4195216;28;20044;-88
2023/01/11 08:45:59;;;;;;;11.85;1.38;;;9.50;99.90;;;;;;4168842;28;20072;-88
2023/01/11 08:48:01;;;;;;;11.00;1.27;;;9.40;99.90;;;;;;4195403;28;20055;-88
2023/01/11 08:50:02;;;;;;;12.15;1.88;;;9.40;99.90;;;;;;4201800;28;20055;-88
2023/01/11 08:52:03;;;;;;;7.57;1.85;;;9.30;99.90;;;;;;4196319;28;20048;-88
2023/01/11 08:54:08;;;;;;;13.52;2.28;;;9.40;99.90;;;;;;4188076;28;20060;-89
2023/01/11 08:56:09;;;;;;;9.23;1.92;;;8.80;99.90;;;;;;4197795;28;20119;-88
2023/01/11 08:58:10;;;;;;;5.40;0.88;;;9.40;99.90;;;;;;4188131;28;20052;-89
2023/01/11 09:00:11;;;;;;;14.57;1.50;;;9.20;99.90;;;;;;4184763;28;20064;-88
2023/01/11 09:02:12;;;;;;;6.32;1.33;;;9.80;99.90;;;;;;4194503;28;20382;-88
2023/01/11 09:04:13;;;;;;;8.02;1.23;;;9.00;99.90;;;;;;4194305;28;20139;-89
2023/01/11 09:06:13;;;;;;;8.05;1.52;;;9.40;99.90;;;;;;4183912;28;20128;-88
2023/01/11 09:08:16;;;;;;;12.88;1.92;;;9.30;99.90;;;;;;4187088;28;20076;-89
2023/01/11 09:10:17;;;;;;;4.93;1.23;;;6.50;99.90;;;;;;4197312;28;20095;-89
2023/01/11 09:12:18;;;;;;;14.07;1.80;;;9.90;99.90;;;;;;4198398;28;20036;-88
2023/01/11 09:14:21;;;;;;;7.25;1.15;;;10.20;99.90;;;;;;4184574;28;20056;-87
2023/01/11 09:16:21;;;;;;;8.30;1.98;;;10.00;99.90;;;;;;4176576;28;20045;-88
2023/01/11 09:18:25;;;;;;;7.95;1.38;;;9.40;99.90;;;;;;4186453;28;20044;-89
2023/01/11 09:20:26;;;;;;;6.25;1.30;;;9.40;99.90;;;;;;4196898;28;20440;-88
2023/01/11 09:22:27;;;;;;;9.70;1.40;;;7.10;99.90;;;;;;4183481;28;20044;-88
2023/01/11 09:24:28;;;;;;;4.70;0.98;;;9.40;99.90;;;;;;4193452;28;20049;-89
2023/01/11 09:26:29;;;;;;;13.40;1.20;;;9.50;99.90;;;;;;4166000;28;20045;-89
2023/01/11 09:28:30;;;;;;;8.18;1.58;;;9.90;99.90;;;;;;4186254;28;20055;-89
2023/01/11 09:30:31;;;;;;;14.15;2.25;;;9.70;99.90;;;;;;4193660;28;20055;-87
2023/01/11 09:32:31;;;;;;;13.63;2.35;;;10.00;99.90;;;;;;4193469;28;20087;-87
2023/01/11 09:34:34;;;;;;;7.03;1.35;;;10.30;99.90;;;;;;4188483;28;20128;-89
2023/01/11 09:36:35;;;;;;;10.38;1.20;;;10.60;99.90;;;;;;4197642;28;20540;-87
2023/01/11 09:38:38;;;;;;;6.28;1.35;;;;;;;;;;4185414;28;20049;-88
2023/01/11 09:41:08;;;;;;;13.45;1.27;;;;;;;;;;4192739;28;20040;-89
2023/01/11 09:43:11;;;;;;;4.57;1.45;;;;;;;;;;4177783;28;20053;-87
2023/01/11 09:45:14;;;;;;;8.48;1.00;;;;;;;;;;4182626;28;20056;-88
2023/01/11 09:47:18;;;;;;;10.93;1.48;;;;;;;;;;4183892;28;20129;-89
2023/01/11 09:49:28;;;;;;;9.10;2.22;;;;;;;;;;4194997;28;20037;-89
2023/01/11 09:51:36;;;;;;;8.50;1.48;;;;;;;;;;4192743;28;20048;-90
2023/01/11 09:53:37;;;;;;;10.50;1.80;;;;;;;;;;4194547;28;20051;-88
2023/01/11 09:55:48;;;;;;;5.20;0.90;;;12.60;99.90;;;;;;4195832;28;20053;-89
2023/01/11 09:57:54;;;;;;;4.18;0.98;;;14.60;99.90;;;;;;4194205;28;20055;-88
2023/01/11 10:00:09;;;;;;;6.25;1.92;;;14.10;99.90;;;;;;4186740;28;20051;-88
2023/01/11 10:02:37;;;;;;;4.72;1.15;;;14.20;99.90;;;;;;4198038;28;20052;-89
2023/01/11 10:04:48;;;;;;;8.35;1.90;;;14.00;99.90;;;;;;4207542;28;20068;-90
2023/01/11 10:07:11;;;;;;;7.70;1.08;;;13.60;99.90;;;;;;4188774;28;20049;-89
2023/01/11 10:09:26;;;;;;;7.85;0.95;;;13.60;99.90;;;;;;4180477;28;20052;-89
2023/01/11 10:11:42;;;;;;;10.10;1.35;;;13.20;99.90;;;;;;4198411;28;20128;-89
2023/01/11 10:13:56;;;;;;;4.70;0.80;;;12.90;99.90;;;;;;4188978;28;20570;-91
2023/01/11 10:16:37;;;;;;;7.53;1.63;;;13.10;99.90;;;;;;4183371;28;20037;-89
2023/01/11 10:18:50;;;;;;;8.15;1.13;;;12.70;99.90;;;;;;4129585;28;20527;-90
2023/01/11 10:20:54;;;;;;;6.18;1.10;;;12.80;99.90;;;;;;4183677;28;20516;-89
2023/01/11 10:23:13;;;;;;;8.77;1.67;;;12.80;99.90;;;;;;4178422;28;20047;-90
2023/01/11 10:25:17;;;;;;;;;;;12.80;99.90;;;;;;4196445;28;20181;-90
2023/01/11 10:27:39;;;;;;;5.78;1.10;;;12.80;99.90;;;;;;4190674;28;20278;-90
2023/01/11 10:32:48;;;;;;;8.45;1.33;;;12.80;99.90;;;;;;4187569;28;20413;-90
2023/01/11 10:39:22;;;;;;;8.93;1.70;;;12.80;99.90;;;;;;4190410;28;20056;-91
2023/01/11 10:41:36;;;;;;;7.93;1.63;;;13.00;99.90;;;;;;4193217;28;20060;-89
2023/01/11 10:43:42;;;;;;;4.13;0.88;;;12.90;99.90;;;;;;4184929;28;20048;-89
2023/01/11 10:45:58;;;;;;;7.55;1.70;;;12.90;99.90;;;;;;4186045;28;20512;-90
2023/01/11 10:48:26;;;;;;;6.68;1.30;;;12.90;99.90;;;;;;4195738;28;20059;-89
2023/01/11 10:50:37;;;;;;;9.32;1.15;;;12.80;99.90;;;;;;4187062;28;20123;-89
2023/01/11 10:52:44;;;;;;;10.85;1.48;;;12.90;99.90;;;;;;4183607;28;20409;-89
2023/01/11 10:54:45;;;;;;;7.85;1.10;;;12.90;99.90;;;;;;4193347;28;23845;-89
2023/01/11 10:57:16;;;;;;;6.82;1.30;;;12.90;99.90;;;;;;4179685;28;20510;-88
2023/01/11 10:59:33;;;;;;;5.57;1.20;;;12.80;99.90;;;;;;4175491;28;20123;-88
2023/01/11 11:01:39;;;;;;;6.63;2.17;;;12.60;99.90;;;;;;4191825;28;20044;-88
2023/01/11 11:03:47;;;;;;;14.90;2.25;;;12.70;99.90;;;;;;4187099;28;20080;-88
2023/01/11 11:06:07;;;;;;;5.97;1.45;;;12.60;99.90;;;;;;4175948;28;20049;-88
2023/01/11 11:08:25;;;;;;;9.07;1.50;;;12.30;99.90;;;;;;4184605;28;20048;-88
2023/01/11 11:11:16;;;;;;;8.88;2.35;;;12.20;99.90;;;;;;4194366;28;20063;-88
2023/01/11 11:13:33;;;;;;;6.45;1.35;;;12.10;99.90;;;;;;4096671;28;20086;-88
2023/01/11 11:15:46;;;;;;;8.32;1.80;;;11.80;99.90;;;;;;4134684;28;20049;-88
2023/01/11 11:17:51;;;;;;;8.48;1.83;;;11.80;99.90;;;;;;4132803;28;20167;-88
2023/01/11 11:19:52;;;;;;;7.28;1.02;;;11.70;99.90;;;;;;4191986;28;20040;-88
2023/01/11 11:21:53;;;;;;;7.95;1.20;;;11.70;99.90;;;;;;4187596;28;20029;-88
2023/01/11 11:23:58;;;;;;;10.20;1.35;;;11.60;99.90;;;;;;4189481;28;20040;-88
2023/01/11 11:26:01;;;;;;;5.53;1.25;;;11.50;99.90;;;;;;4186974;28;20114;-88
2023/01/11 11:28:14;;;;;;;6.60;1.52;;;11.40;99.90;;;;;;4184157;28;20093;-88
2023/01/11 11:30:30;;;;;;;8.05;1.35;;;11.30;99.90;;;;;;4196518;28;20049;-88